MOL Explorer — 3EKT8 — position and weather

sailwx.info

Track history (hours):
 
Tides and Currents Weather Stations Pressure Air Temp Water Temp Dewpoint Dewpoint Depression Visibility Wind Speed Wind Dir Waves Ship Positions

MOL Explorer

Last reported at 2016-May-05 02:13 UTC. Time now 2016-May-05 19:58 UTC.
Position N 32°03' W 080°15'.

Length 293 m; draft 10.1 m.

Type: Ship (hazmat cat A). MMSI: 372827000.

Date/timePositionNaut miles runAvg speedWind from/ knotsBaromVisibWave heightAir tempDewpointWater temp
2016-May-05 02:13N 32°03' W 080°15'812.1
2016-May-05 01:33N 31°60' W 080°23'1211.8
2016-May-05 00:33N 31°57' W 080°37'1111.4
2016-May-04 23:34N 32°02' W 080°49'1110.5
2016-May-04 22:33N 32°06' W 081°01'5 5.5
2016-May-04 21:33N 32°06' W 081°07'2 1.8
2016-May-04 20:33N 32°08' W 081°08'0 0.0
2016-May-04 19:33N 32°08' W 081°08'0 0.0
2016-May-04 18:33N 32°08' W 081°08'0 0.0
2016-May-04 17:33N 32°08' W 081°08'0 0.0
2016-May-04 16:33N 32°08' W 081°08'0 0.0
2016-May-04 15:33N 32°08' W 081°08'0 0.0
2016-May-04 14:33N 32°08' W 081°08'0 0.0
2016-May-04 13:33N 32°08' W 081°08'0 0.0
2016-May-04 12:33N 32°08' W 081°08'0 0.0
2016-May-04 11:33N 32°08' W 081°08'0 0.1
2016-May-04 10:33N 32°08' W 081°08'6 5.7
2016-May-04 09:33N 32°05' W 081°03'1010.3
2016-May-04 08:33N 32°02' W 080°51'1010.5
2016-May-04 07:33N 31°57' W 080°40'10 9.9
2016-May-04 06:33N 31°54' W 080°29'1110.6
2016-May-04 05:33N 31°46' W 080°21'274 6.1
2016-May-02 08:22N 27°13' W 079°50'1417.1
2016-May-02 07:33N 26°59' W 079°50'1717.3
2016-May-02 06:33N 26°42' W 079°50'1716.9
2016-May-02 05:33N 26°25' W 079°52'1716.8
2016-May-02 04:33N 26°09' W 079°55'1716.7
2016-May-02 03:33N 25°52' W 079°59'1110.5
2016-May-02 02:32N 25°46' W 080°09'1 0.5
2016-May-02 01:27N 25°46' W 080°09'0 0.0
2016-May-01 22:27N 25°46' W 080°09'0 0.0
2016-May-01 21:33N 25°46' W 080°09'0 0.0
2016-May-01 20:18N 25°46' W 080°09'0 0.0
2016-May-01 19:33N 25°46' W 080°09'0 0.0
2016-May-01 18:33N 25°46' W 080°09'0 0.0
2016-May-01 17:03N 25°46' W 080°09'0 0.0
2016-May-01 16:33N 25°46' W 080°09'0 0.0
2016-May-01 15:24N 25°46' W 080°09'2 2.6
2016-May-01 14:33N 25°45' W 080°07'7 6.8
2016-May-01 13:33N 25°42' W 080°00'  
2016-Apr-27 15:33N 09°03' W 079°39'18 0.9
2016-Apr-26 19:31N 08°49' W 079°27'1010.8
2016-Apr-26 18:33N 08°40' W 079°23'  
Track history (hours):
 
Tides and Currents Weather Stations Pressure Air Temp Water Temp Dewpoint Dewpoint Depression Visibility Wind Speed Wind Dir Waves Ship Positions

MOL Explorer

Last reported at 2016-May-05 02:13 UTC. Time now 2016-May-05 19:58 UTC.
Position N 32°03' W 080°15'.

Length 293 m; draft 10.1 m.

Type: Ship (hazmat cat A). MMSI: 372827000.

Date/timePositionNaut miles runAvg speedWind from/ knotsBaromVisibWave heightAir tempDewpointWater temp
2016-May-05 02:13N 32°03' W 080°15'812.1
2016-May-05 01:33N 31°60' W 080°23'1211.8
2016-May-05 00:33N 31°57' W 080°37'1111.4
2016-May-04 23:34N 32°02' W 080°49'1110.5
2016-May-04 22:33N 32°06' W 081°01'5 5.5
2016-May-04 21:33N 32°06' W 081°07'2 1.8
2016-May-04 20:33N 32°08' W 081°08'0 0.0
2016-May-04 19:33N 32°08' W 081°08'0 0.0
2016-May-04 18:33N 32°08' W 081°08'0 0.0
2016-May-04 17:33N 32°08' W 081°08'0 0.0
2016-May-04 16:33N 32°08' W 081°08'0 0.0
2016-May-04 15:33N 32°08' W 081°08'0 0.0
2016-May-04 14:33N 32°08' W 081°08'0 0.0
2016-May-04 13:33N 32°08' W 081°08'0 0.0
2016-May-04 12:33N 32°08' W 081°08'0 0.0
2016-May-04 11:33N 32°08' W 081°08'0 0.1
2016-May-04 10:33N 32°08' W 081°08'6 5.7
2016-May-04 09:33N 32°05' W 081°03'1010.3
2016-May-04 08:33N 32°02' W 080°51'1010.5
2016-May-04 07:33N 31°57' W 080°40'10 9.9
2016-May-04 06:33N 31°54' W 080°29'1110.6
2016-May-04 05:33N 31°46' W 080°21'274 6.1
2016-May-02 08:22N 27°13' W 079°50'1417.1
2016-May-02 07:33N 26°59' W 079°50'1717.3
2016-May-02 06:33N 26°42' W 079°50'1716.9
2016-May-02 05:33N 26°25' W 079°52'1716.8
2016-May-02 04:33N 26°09' W 079°55'1716.7
2016-May-02 03:33N 25°52' W 079°59'1110.5
2016-May-02 02:32N 25°46' W 080°09'1 0.5
2016-May-02 01:27N 25°46' W 080°09'0 0.0
2016-May-01 22:27N 25°46' W 080°09'0 0.0
2016-May-01 21:33N 25°46' W 080°09'0 0.0
2016-May-01 20:18N 25°46' W 080°09'0 0.0
2016-May-01 19:33N 25°46' W 080°09'0 0.0
2016-May-01 18:33N 25°46' W 080°09'0 0.0
2016-May-01 17:03N 25°46' W 080°09'0 0.0
2016-May-01 16:33N 25°46' W 080°09'0 0.0
2016-May-01 15:24N 25°46' W 080°09'2 2.6
2016-May-01 14:33N 25°45' W 080°07'7 6.8
2016-May-01 13:33N 25°42' W 080°00'  
2016-Apr-27 15:33N 09°03' W 079°39'18 0.9
2016-Apr-26 19:31N 08°49' W 079°27'1010.8
2016-Apr-26 18:33N 08°40' W 079°23'  

Dump ship's entire track history